sensor_id;sensor_type;location;lat;lon;timestamp;pressure;altitude;pressure_sealevel;temperature;humidity
43115;BME280;28727;50.068;14.452;2023-11-18T00:01:04;99749.28;;;5.85;60.39
43115;BME280;28727;50.068;14.452;2023-11-18T00:03:38;99760.28;;;5.79;60.85
43115;BME280;28727;50.068;14.452;2023-11-18T00:06:11;99757.09;;;5.75;60.83
43115;BME280;28727;50.068;14.452;2023-11-18T00:08:47;99759.25;;;5.70;60.79
43115;BME280;28727;50.068;14.452;2023-11-18T00:11:21;99767.13;;;5.70;60.79
43115;BME280;28727;50.068;14.452;2023-11-18T00:13:53;99763.78;;;5.68;61.46
43115;BME280;28727;50.068;14.452;2023-11-18T00:16:25;99760.47;;;5.66;60.97
43115;BME280;28727;50.068;14.452;2023-11-18T00:19:00;99764.31;;;5.62;61.89
43115;BME280;28727;50.068;14.452;2023-11-18T00:21:33;99770.25;;;5.64;61.84
43115;BME280;28727;50.068;14.452;2023-11-18T00:24:07;99764.31;;;5.62;62.24
43115;BME280;28727;50.068;14.452;2023-11-18T00:26:39;99780.59;;;5.66;62.32
43115;BME280;28727;50.068;14.452;2023-11-18T00:29:11;99776.56;;;5.62;62.46
43115;BME280;28727;50.068;14.452;2023-11-18T00:31:43;99780.03;;;5.62;62.36
43115;BME280;28727;50.068;14.452;2023-11-18T00:34:15;99779.78;;;5.65;62.44
43115;BME280;28727;50.068;14.452;2023-11-18T00:36:56;99784.63;;;5.70;62.79
43115;BME280;28727;50.068;14.452;2023-11-18T00:39:29;99785.47;;;5.70;62.63
43115;BME280;28727;50.068;14.452;2023-11-18T00:42:03;99793.13;;;5.62;62.96
43115;BME280;28727;50.068;14.452;2023-11-18T00:44:35;99794.06;;;5.61;63.07
43115;BME280;28727;50.068;14.452;2023-11-18T00:47:09;99798.94;;;5.66;63.12
43115;BME280;28727;50.068;14.452;2023-11-18T00:49:41;99805.28;;;5.63;63.18
43115;BME280;28727;50.068;14.452;2023-11-18T00:52:14;99811.47;;;5.62;62.99
43115;BME280;28727;50.068;14.452;2023-11-18T00:54:50;99806.50;;;5.59;62.80
43115;BME280;28727;50.068;14.452;2023-11-18T00:57:21;99814.22;;;5.61;62.71
43115;BME280;28727;50.068;14.452;2023-11-18T00:59:53;99827.47;;;5.59;63.05
43115;BME280;28727;50.068;14.452;2023-11-18T01:02:26;99841.75;;;5.55;63.11
43115;BME280;28727;50.068;14.452;2023-11-18T01:04:59;99836.44;;;5.46;63.91
43115;BME280;28727;50.068;14.452;2023-11-18T01:07:31;99836.22;;;5.38;65.82
43115;BME280;28727;50.068;14.452;2023-11-18T01:10:07;99827.78;;;5.34;66.49
43115;BME280;28727;50.068;14.452;2023-11-18T01:12:42;99833.00;;;5.34;67.73
43115;BME280;28727;50.068;14.452;2023-11-18T01:15:17;99832.53;;;5.40;67.10
43115;BME280;28727;50.068;14.452;2023-11-18T01:17:48;99831.09;;;5.36;68.21
43115;BME280;28727;50.068;14.452;2023-11-18T01:20:20;99830.41;;;5.34;67.73
43115;BME280;28727;50.068;14.452;2023-11-18T01:22:54;99828.34;;;5.38;67.15
43115;BME280;28727;50.068;14.452;2023-11-18T01:25:26;99825.38;;;5.31;67.65
43115;BME280;28727;50.068;14.452;2023-11-18T01:27:59;99819.69;;;5.26;67.53
43115;BME280;28727;50.068;14.452;2023-11-18T01:30:31;99826.03;;;5.23;67.87
43115;BME280;28727;50.068;14.452;2023-11-18T01:33:04;99832.34;;;5.21;68.52
43115;BME280;28727;50.068;14.452;2023-11-18T01:35:36;99825.88;;;5.25;68.21
43115;BME280;28727;50.068;14.452;2023-11-18T01:38:08;99828.75;;;5.22;67.78
43115;BME280;28727;50.068;14.452;2023-11-18T01:40:40;99831.03;;;5.15;68.35
43115;BME280;28727;50.068;14.452;2023-11-18T01:43:12;99832.34;;;5.21;67.88
43115;BME280;28727;50.068;14.452;2023-11-18T01:45:48;99826.97;;;5.22;67.72
43115;BME280;28727;50.068;14.452;2023-11-18T01:48:20;99825.78;;;5.26;67.70
43115;BME280;28727;50.068;14.452;2023-11-18T01:50:57;99835.53;;;5.24;68.16
43115;BME280;28727;50.068;14.452;2023-11-18T01:53:34;99832.91;;;5.24;68.09
43115;BME280;28727;50.068;14.452;2023-11-18T01:56:11;99834.72;;;5.24;67.99
43115;BME280;28727;50.068;14.452;2023-11-18T01:58:46;99839.47;;;5.19;67.70
43115;BME280;28727;50.068;14.452;2023-11-18T02:01:18;99845.91;;;5.15;68.07
43115;BME280;28727;50.068;14.452;2023-11-18T02:03:50;99847.69;;;5.14;68.27
43115;BME280;28727;50.068;14.452;2023-11-18T02:06:22;99845.53;;;5.19;68.41
43115;BME280;28727;50.068;14.452;2023-11-18T02:08:54;99847.66;;;5.25;67.89
43115;BME280;28727;50.068;14.452;2023-11-18T02:11:35;99852.78;;;5.27;67.71
43115;BME280;28727;50.068;14.452;2023-11-18T02:14:14;99848.50;;;5.26;67.32
43115;BME280;28727;50.068;14.452;2023-11-18T02:16:49;99854.00;;;5.23;67.59
43115;BME280;28727;50.068;14.452;2023-11-18T02:19:27;99855.06;;;5.20;67.73
43115;BME280;28727;50.068;14.452;2023-11-18T02:22:01;99859.47;;;5.20;67.69
43115;BME280;28727;50.068;14.452;2023-11-18T02:24:34;99853.53;;;5.18;67.75
43115;BME280;28727;50.068;14.452;2023-11-18T02:27:09;99856.38;;;5.15;67.72
43115;BME280;28727;50.068;14.452;2023-11-18T02:29:45;99858.50;;;5.21;67.86
43115;BME280;28727;50.068;14.452;2023-11-18T02:32:33;99855.53;;;5.25;67.53
43115;BME280;28727;50.068;14.452;2023-11-18T02:35:24;99857.19;;;5.26;67.82
43115;BME280;28727;50.068;14.452;2023-11-18T02:37:58;99857.19;;;5.26;67.86
43115;BME280;28727;50.068;14.452;2023-11-18T02:40:34;99858.41;;;5.22;68.47
43115;BME280;28727;50.068;14.452;2023-11-18T02:43:08;99852.78;;;5.27;68.42
43115;BME280;28727;50.068;14.452;2023-11-18T02:45:41;99854.09;;;5.32;68.24
43115;BME280;28727;50.068;14.452;2023-11-18T02:48:16;99860.88;;;5.35;68.18
43115;BME280;28727;50.068;14.452;2023-11-18T02:50:50;99860.72;;;5.36;67.87
43115;BME280;28727;50.068;14.452;2023-11-18T02:53:22;99865.28;;;5.34;67.88
43115;BME280;28727;50.068;14.452;2023-11-18T02:55:53;99869.69;;;5.34;67.99
43115;BME280;28727;50.068;14.452;2023-11-18T02:58:25;99866.94;;;5.35;68.29
43115;BME280;28727;50.068;14.452;2023-11-18T03:01:00;99862.28;;;5.39;68.20
43115;BME280;28727;50.068;14.452;2023-11-18T03:03:32;99876.22;;;5.40;68.34
43115;BME280;28727;50.068;14.452;2023-11-18T03:06:04;99866.31;;;5.43;68.36
43115;BME280;28727;50.068;14.452;2023-11-18T03:08:37;99862.63;;;5.46;68.46
43115;BME280;28727;50.068;14.452;2023-11-18T03:11:10;99873.69;;;5.49;67.99
43115;BME280;28727;50.068;14.452;2023-11-18T03:13:42;99869.41;;;5.48;68.13
43115;BME280;28727;50.068;14.452;2023-11-18T03:16:14;99874.63;;;5.48;68.09
43115;BME280;28727;50.068;14.452;2023-11-18T03:18:46;99873.00;;;5.47;68.06
43115;BME280;28727;50.068;14.452;2023-11-18T03:21:18;99871.31;;;5.46;68.08
43115;BME280;28727;50.068;14.452;2023-11-18T03:23:53;99876.69;;;5.45;67.98
43115;BME280;28727;50.068;14.452;2023-11-18T03:26:25;99869.66;;;5.45;68.31
43115;BME280;28727;50.068;14.452;2023-11-18T03:29:00;99872.00;;;5.48;68.25
43115;BME280;28727;50.068;14.452;2023-11-18T03:31:34;99870.22;;;5.49;67.88
43115;BME280;28727;50.068;14.452;2023-11-18T03:34:06;99865.00;;;5.49;68.17
43115;BME280;28727;50.068;14.452;2023-11-18T03:36:37;99879.38;;;5.54;67.83
43115;BME280;28727;50.068;14.452;2023-11-18T03:39:09;99876.53;;;5.57;67.49
43115;BME280;28727;50.068;14.452;2023-11-18T03:41:42;99879.16;;;5.57;67.56
43115;BME280;28727;50.068;14.452;2023-11-18T03:44:17;99878.88;;;5.60;67.49
43115;BME280;28727;50.068;14.452;2023-11-18T03:46:49;99883.06;;;5.63;67.29
43115;BME280;28727;50.068;14.452;2023-11-18T03:49:21;99888.19;;;5.64;67.07
43115;BME280;28727;50.068;14.452;2023-11-18T03:51:53;99888.41;;;5.61;67.40
43115;BME280;28727;50.068;14.452;2023-11-18T03:54:27;99889.03;;;5.65;67.25
43115;BME280;28727;50.068;14.452;2023-11-18T03:57:02;99884.34;;;5.68;67.30
43115;BME280;28727;50.068;14.452;2023-11-18T03:59:34;99883.16;;;5.61;67.44
43115;BME280;28727;50.068;14.452;2023-11-18T04:02:08;99889.63;;;5.57;67.54
43115;BME280;28727;50.068;14.452;2023-11-18T04:04:43;99889.38;;;5.60;67.59
43115;BME280;28727;50.068;14.452;2023-11-18T04:07:15;99894.50;;;5.62;67.83
43115;BME280;28727;50.068;14.452;2023-11-18T04:09:47;99902.25;;;5.63;67.80
43115;BME280;28727;50.068;14.452;2023-11-18T04:12:20;99904.75;;;5.65;67.86
43115;BME280;28727;50.068;14.452;2023-11-18T04:14:54;99907.38;;;5.65;67.78
43115;BME280;28727;50.068;14.452;2023-11-18T04:17:26;99903.66;;;5.67;67.82
43115;BME280;28727;50.068;14.452;2023-11-18T04:20:00;99899.13;;;5.69;67.70
43115;BME280;28727;50.068;14.452;2023-11-18T04:22:32;99908.88;;;5.67;67.76
43115;BME280;28727;50.068;14.452;2023-11-18T04:25:04;99904.59;;;5.66;67.63
43115;BME280;28727;50.068;14.452;2023-11-18T04:27:38;99918.53;;;5.67;67.70
43115;BME280;28727;50.068;14.452;2023-11-18T04:30:12;99917.47;;;5.69;67.63
43115;BME280;28727;50.068;14.452;2023-11-18T04:32:45;99929.47;;;5.72;67.44
43115;BME280;28727;50.068;14.452;2023-11-18T04:35:17;99924.72;;;5.77;67.52
43115;BME280;28727;50.068;14.452;2023-11-18T04:37:49;99930.66;;;5.79;67.25
43115;BME280;28727;50.068;14.452;2023-11-18T04:40:22;99928.88;;;5.80;67.28
43115;BME280;28727;50.068;14.452;2023-11-18T04:42:55;99925.41;;;5.79;67.61
43115;BME280;28727;50.068;14.452;2023-11-18T04:45:26;99932.19;;;5.82;67.02
43115;BME280;28727;50.068;14.452;2023-11-18T04:47:58;99927.53;;;5.85;67.07
43115;BME280;28727;50.068;14.452;2023-11-18T04:50:31;99927.91;;;5.81;66.76
43115;BME280;28727;50.068;14.452;2023-11-18T04:53:04;99932.59;;;5.77;66.91
43115;BME280;28727;50.068;14.452;2023-11-18T04:55:39;99929.25;;;5.75;67.17
43115;BME280;28727;50.068;14.452;2023-11-18T04:58:11;99932.69;;;5.75;66.90
43115;BME280;28727;50.068;14.452;2023-11-18T05:00:43;99935.91;;;5.79;66.94
43115;BME280;28727;50.068;14.452;2023-11-18T05:03:16;99942.09;;;5.78;66.90
43115;BME280;28727;50.068;14.452;2023-11-18T05:05:48;99941.25;;;5.77;66.58
43115;BME280;28727;50.068;14.452;2023-11-18T05:08:21;99935.56;;;5.72;67.19
43115;BME280;28727;50.068;14.452;2023-11-18T05:10:53;99945.91;;;5.74;67.20
43115;BME280;28727;50.068;14.452;2023-11-18T05:13:28;99945.69;;;5.77;67.04
43115;BME280;28727;50.068;14.452;2023-11-18T05:16:03;99947.31;;;5.78;66.62
43115;BME280;28727;50.068;14.452;2023-11-18T05:18:36;99950.31;;;5.73;66.70
43115;BME280;28727;50.068;14.452;2023-11-18T05:21:08;99954.38;;;5.66;66.96
43115;BME280;28727;50.068;14.452;2023-11-18T05:23:40;99965.84;;;5.65;67.13
43115;BME280;28727;50.068;14.452;2023-11-18T05:26:12;99965.03;;;5.65;67.41
43115;BME280;28727;50.068;14.452;2023-11-18T05:28:44;99961.56;;;5.64;67.34
43115;BME280;28727;50.068;14.452;2023-11-18T05:31:16;99956.31;;;5.64;67.15
43115;BME280;28727;50.068;14.452;2023-11-18T05:33:49;99956.91;;;5.68;66.69
43115;BME280;28727;50.068;14.452;2023-11-18T05:36:23;99953.56;;;5.66;67.05
43115;BME280;28727;50.068;14.452;2023-11-18T05:38:59;99957.63;;;5.70;66.95
43115;BME280;28727;50.068;14.452;2023-11-18T05:41:31;99959.84;;;5.74;67.13
43115;BME280;28727;50.068;14.452;2023-11-18T05:44:03;99959.84;;;5.74;66.93
43115;BME280;28727;50.068;14.452;2023-11-18T05:46:35;99955.69;;;5.72;66.72
43115;BME280;28727;50.068;14.452;2023-11-18T05:49:07;99959.63;;;5.66;66.70
43115;BME280;28727;50.068;14.452;2023-11-18T05:51:40;99972.63;;;5.68;66.67
43115;BME280;28727;50.068;14.452;2023-11-18T05:54:14;99972.28;;;5.61;67.05
43115;BME280;28727;50.068;14.452;2023-11-18T05:56:46;99973.09;;;5.62;67.00
43115;BME280;28727;50.068;14.452;2023-11-18T05:59:18;99975.72;;;5.62;66.69
43115;BME280;28727;50.068;14.452;2023-11-18T06:01:50;99971.78;;;5.67;66.72
43115;BME280;28727;50.068;14.452;2023-11-18T06:04:25;99975.34;;;5.66;66.72
43115;BME280;28727;50.068;14.452;2023-11-18T06:06:57;99970.84;;;5.68;66.80
43115;BME280;28727;50.068;14.452;2023-11-18T06:09:29;99976.91;;;5.69;66.72
43115;BME280;28727;50.068;14.452;2023-11-18T06:12:00;99969.63;;;5.72;66.73
43115;BME280;28727;50.068;14.452;2023-11-18T06:14:33;99972.97;;;5.74;65.97
43115;BME280;28727;50.068;14.452;2023-11-18T06:17:05;99971.06;;;5.76;66.08
43115;BME280;28727;50.068;14.452;2023-11-18T06:19:40;99969.84;;;5.81;65.99
43115;BME280;28727;50.068;14.452;2023-11-18T06:22:11;99977.72;;;5.81;65.88
43115;BME280;28727;50.068;14.452;2023-11-18T06:24:45;99977.59;;;5.82;65.66
43115;BME280;28727;50.068;14.452;2023-11-18T06:27:17;99980.78;;;5.86;65.71
43115;BME280;28727;50.068;14.452;2023-11-18T06:29:54;99978.28;;;5.84;65.83
43115;BME280;28727;50.068;14.452;2023-11-18T06:32:26;99989.63;;;5.85;65.41
43115;BME280;28727;50.068;14.452;2023-11-18T06:34:58;99995.00;;;5.83;65.11
43115;BME280;28727;50.068;14.452;2023-11-18T06:37:33;99994.66;;;5.88;65.00
43115;BME280;28727;50.068;14.452;2023-11-18T06:40:06;99996.34;;;5.89;65.00
43115;BME280;28727;50.068;14.452;2023-11-18T06:42:47;100003.56;;;5.85;64.66
43115;BME280;28727;50.068;14.452;2023-11-18T06:45:22;100002.53;;;5.76;64.71
43115;BME280;28727;50.068;14.452;2023-11-18T06:47:54;100014.66;;;5.77;64.91
43115;BME280;28727;50.068;14.452;2023-11-18T06:50:29;100010.25;;;5.78;64.83
43115;BME280;28727;50.068;14.452;2023-11-18T06:53:02;100014.91;;;5.74;64.32
43115;BME280;28727;50.068;14.452;2023-11-18T06:55:34;100022.88;;;5.73;64.75
43115;BME280;28727;50.068;14.452;2023-11-18T06:58:07;100018.47;;;5.73;64.89
43115;BME280;28727;50.068;14.452;2023-11-18T07:00:39;100022.88;;;5.73;64.76
43115;BME280;28727;50.068;14.452;2023-11-18T07:03:11;100023.50;;;5.76;64.80
43115;BME280;28727;50.068;14.452;2023-11-18T07:05:43;100021.81;;;5.75;64.42
43115;BME280;28727;50.068;14.452;2023-11-18T07:08:16;100024.44;;;5.75;64.64
43115;BME280;28727;50.068;14.452;2023-11-18T07:10:47;100019.66;;;5.81;64.28
43115;BME280;28727;50.068;14.452;2023-11-18T07:13:20;100025.38;;;5.86;63.94
43115;BME280;28727;50.068;14.452;2023-11-18T07:15:54;100026.56;;;5.82;64.03
43115;BME280;28727;50.068;14.452;2023-11-18T07:18:28;100034.66;;;5.78;63.97
43115;BME280;28727;50.068;14.452;2023-11-18T07:21:06;100043.38;;;5.79;63.92
43115;BME280;28727;50.068;14.452;2023-11-18T07:23:38;100036.09;;;5.83;63.85
43115;BME280;28727;50.068;14.452;2023-11-18T07:26:10;100044.94;;;5.82;63.06
43115;BME280;28727;50.068;14.452;2023-11-18T07:28:42;100043.00;;;5.84;63.21
43115;BME280;28727;50.068;14.452;2023-11-18T07:31:16;100041.84;;;5.88;63.07
43115;BME280;28727;50.068;14.452;2023-11-18T07:33:50;100044.94;;;5.82;63.09
43115;BME280;28727;50.068;14.452;2023-11-18T07:36:22;100046.16;;;5.89;63.51
43115;BME280;28727;50.068;14.452;2023-11-18T07:38:54;100040.63;;;5.92;63.49
43115;BME280;28727;50.068;14.452;2023-11-18T07:41:27;100043.84;;;5.95;63.31
43115;BME280;28727;50.068;14.452;2023-11-18T07:44:04;100049.69;;;5.99;63.00
43115;BME280;28727;50.068;14.452;2023-11-18T07:46:39;100035.69;;;6.21;69.26
43115;BME280;28727;50.068;14.452;2023-11-18T07:49:14;100038.50;;;6.61;69.14
43115;BME280;28727;50.068;14.452;2023-11-18T07:51:48;100045.00;;;6.98;68.42
43115;BME280;28727;50.068;14.452;2023-11-18T07:54:19;100046.09;;;7.47;68.09
43115;BME280;28727;50.068;14.452;2023-11-18T07:56:54;100041.56;;;7.58;65.72
43115;BME280;28727;50.068;14.452;2023-11-18T07:59:26;100035.25;;;7.70;65.92
43115;BME280;28727;50.068;14.452;2023-11-18T08:02:01;100051.47;;;7.85;64.21
43115;BME280;28727;50.068;14.452;2023-11-18T08:04:42;100047.97;;;7.75;61.71
43115;BME280;28727;50.068;14.452;2023-11-18T08:07:14;100045.66;;;7.42;60.70
43115;BME280;28727;50.068;14.452;2023-11-18T08:09:46;100046.94;;;7.26;60.44
43115;BME280;28727;50.068;14.452;2023-11-18T08:12:17;100042.47;;;7.17;60.75
43115;BME280;28727;50.068;14.452;2023-11-18T08:14:49;100044.47;;;7.04;61.03
43115;BME280;28727;50.068;14.452;2023-11-18T08:17:21;100045.25;;;6.95;60.91
43115;BME280;28727;50.068;14.452;2023-11-18T08:19:53;100043.78;;;6.81;60.97
43115;BME280;28727;50.068;14.452;2023-11-18T08:22:26;100054.78;;;6.75;60.83
43115;BME280;28727;50.068;14.452;2023-11-18T08:24:58;100063.38;;;6.77;61.31
43115;BME280;28727;50.068;14.452;2023-11-18T08:27:30;100069.13;;;6.71;61.15
43115;BME280;28727;50.068;14.452;2023-11-18T08:30:02;100071.63;;;6.73;61.50
43115;BME280;28727;50.068;14.452;2023-11-18T08:32:44;100073.63;;;6.80;61.21
43115;BME280;28727;50.068;14.452;2023-11-18T08:35:16;100074.44;;;6.81;61.29
43115;BME280;28727;50.068;14.452;2023-11-18T08:37:48;100075.97;;;6.83;60.74
43115;BME280;28727;50.068;14.452;2023-11-18T08:40:20;100083.66;;;6.75;60.64
43115;BME280;28727;50.068;14.452;2023-11-18T08:42:56;100083.66;;;6.75;60.46
43115;BME280;28727;50.068;14.452;2023-11-18T08:45:29;100090.72;;;6.75;60.46
43115;BME280;28727;50.068;14.452;2023-11-18T08:48:03;100093.44;;;6.73;60.60
43115;BME280;28727;50.068;14.452;2023-11-18T08:50:39;100089.63;;;6.77;60.50
43115;BME280;28727;50.068;14.452;2023-11-18T08:53:12;100090.66;;;6.86;61.13
43115;BME280;28727;50.068;14.452;2023-11-18T08:55:44;100092.22;;;6.88;60.65
43115;BME280;28727;50.068;14.452;2023-11-18T08:58:36;100089.75;;;6.96;60.39
43115;BME280;28727;50.068;14.452;2023-11-18T09:01:10;100090.09;;;7.03;60.16
43115;BME280;28727;50.068;14.452;2023-11-18T09:03:46;100101.53;;;7.02;59.56
43115;BME280;28727;50.068;14.452;2023-11-18T09:06:24;100104.44;;;6.99;59.85
43115;BME280;28727;50.068;14.452;2023-11-18T09:09:05;100111.88;;;6.94;59.55
43115;BME280;28727;50.068;14.452;2023-11-18T09:11:42;100116.53;;;6.90;59.00
43115;BME280;28727;50.068;14.452;2023-11-18T09:14:15;100118.41;;;6.99;59.58
43115;BME280;28727;50.068;14.452;2023-11-18T09:16:48;100121.38;;;7.06;59.16
43115;BME280;28727;50.068;14.452;2023-11-18T09:19:21;100119.31;;;7.10;59.52
43115;BME280;28727;50.068;14.452;2023-11-18T09:21:53;100121.16;;;7.19;59.48
43115;BME280;28727;50.068;14.452;2023-11-18T09:24:26;100127.72;;;7.24;59.10
43115;BME280;28727;50.068;14.452;2023-11-18T09:27:03;100120.59;;;7.36;58.99
43115;BME280;28727;50.068;14.452;2023-11-18T09:29:37;100119.16;;;7.53;59.38
43115;BME280;28727;50.068;14.452;2023-11-18T09:32:09;100134.44;;;7.68;59.01
43115;BME280;28727;50.068;14.452;2023-11-18T09:34:44;100125.28;;;7.63;57.12
43115;BME280;28727;50.068;14.452;2023-11-18T09:37:17;100123.59;;;7.52;57.69
43115;BME280;28727;50.068;14.452;2023-11-18T09:39:53;100125.25;;;7.53;58.40
43115;BME280;28727;50.068;14.452;2023-11-18T09:42:27;100121.00;;;7.62;57.56
43115;BME280;28727;50.068;14.452;2023-11-18T09:45:01;100120.34;;;7.69;56.37
43115;BME280;28727;50.068;14.452;2023-11-18T09:47:37;100117.63;;;7.80;56.46
43115;BME280;28727;50.068;14.452;2023-11-18T09:50:12;100120.38;;;7.79;56.17
43115;BME280;28727;50.068;14.452;2023-11-18T09:52:49;100116.91;;;7.78;56.46
43115;BME280;28727;50.068;14.452;2023-11-18T09:55:37;100109.09;;;7.88;56.13
43115;BME280;28727;50.068;14.452;2023-11-18T09:58:15;100105.09;;;8.03;56.58
43115;BME280;28727;50.068;14.452;2023-11-18T10:00:47;100099.84;;;8.13;56.32
43115;BME280;28727;50.068;14.452;2023-11-18T10:03:22;100094.59;;;8.13;56.00
43115;BME280;28727;50.068;14.452;2023-11-18T10:05:56;100104.97;;;8.05;55.63
43115;BME280;28727;50.068;14.452;2023-11-18T10:08:29;100101.09;;;8.09;55.67
43115;BME280;28727;50.068;14.452;2023-11-18T10:11:02;100104.84;;;8.06;55.50
43115;BME280;28727;50.068;14.452;2023-11-18T10:13:40;100102.47;;;8.03;55.60
43115;BME280;28727;50.068;14.452;2023-11-18T10:16:15;100096.91;;;7.97;55.12
43115;BME280;28727;50.068;14.452;2023-11-18T10:18:50;100105.63;;;7.88;55.65
43115;BME280;28727;50.068;14.452;2023-11-18T10:21:34;100107.75;;;7.73;54.75
43115;BME280;28727;50.068;14.452;2023-11-18T10:24:11;100109.31;;;7.75;55.63
43115;BME280;28727;50.068;14.452;2023-11-18T10:26:54;100113.75;;;7.85;54.69
43115;BME280;28727;50.068;14.452;2023-11-18T10:29:28;100109.09;;;7.98;54.54
43115;BME280;28727;50.068;14.452;2023-11-18T10:32:07;100101.94;;;8.09;54.04
43115;BME280;28727;50.068;14.452;2023-11-18T10:34:41;100102.25;;;8.26;54.59
43115;BME280;28727;50.068;14.452;2023-11-18T10:37:16;100096.16;;;8.25;54.27
43115;BME280;28727;50.068;14.452;2023-11-18T10:39:49;100105.06;;;8.34;54.04
43115;BME280;28727;50.068;14.452;2023-11-18T10:42:27;100111.44;;;8.31;53.94
43115;BME280;28727;50.068;14.452;2023-11-18T10:45:02;100112.63;;;8.17;53.52
43115;BME280;28727;50.068;14.452;2023-11-18T10:47:35;100113.00;;;8.13;53.68
43115;BME280;28727;50.068;14.452;2023-11-18T10:50:08;100120.34;;;8.00;52.94
43115;BME280;28727;50.068;14.452;2023-11-18T10:52:42;100111.31;;;7.93;53.62
43115;BME280;28727;50.068;14.452;2023-11-18T10:55:14;100112.53;;;7.89;53.97
43115;BME280;28727;50.068;14.452;2023-11-18T10:57:50;100120.44;;;7.89;53.82
43115;BME280;28727;50.068;14.452;2023-11-18T11:00:23;100123.72;;;7.81;53.07
43115;BME280;28727;50.068;14.452;2023-11-18T11:02:58;100124.69;;;7.80;54.00
43115;BME280;28727;50.068;14.452;2023-11-18T11:05:30;100128.97;;;7.81;53.17
43115;BME280;28727;50.068;14.452;2023-11-18T11:08:14;100126.75;;;7.76;53.88
43115;BME280;28727;50.068;14.452;2023-11-18T11:11:00;100127.84;;;7.74;53.90
43115;BME280;28727;50.068;14.452;2023-11-18T11:13:35;100126.69;;;7.67;53.13
43115;BME280;28727;50.068;14.452;2023-11-18T11:16:11;100129.75;;;7.72;53.62
43115;BME280;28727;50.068;14.452;2023-11-18T11:18:48;100118.44;;;7.71;53.40
43115;BME280;28727;50.068;14.452;2023-11-18T11:21:26;100122.97;;;7.69;53.14
43115;BME280;28727;50.068;14.452;2023-11-18T11:24:04;100126.00;;;7.65;53.04
43115;BME280;28727;50.068;14.452;2023-11-18T11:27:33;100123.38;;;7.65;52.64
43115;BME280;28727;50.068;14.452;2023-11-18T11:29:44;100125.41;;;7.61;51.45
43115;BME280;28727;50.068;14.452;2023-11-18T11:32:26;100126.97;;;7.64;51.66
43115;BME280;28727;50.068;14.452;2023-11-18T11:35:02;100135.69;;;7.64;51.80
43115;BME280;28727;50.068;14.452;2023-11-18T11:37:40;100128.88;;;7.62;51.47
43115;BME280;28727;50.068;14.452;2023-11-18T11:40:14;100135.09;;;7.61;50.86
43115;BME280;28727;50.068;14.452;2023-11-18T11:42:53;100133.69;;;7.57;49.98
43115;BME280;28727;50.068;14.452;2023-11-18T11:45:28;100137.69;;;7.51;50.46
43115;BME280;28727;50.068;14.452;2023-11-18T11:48:01;100131.78;;;7.59;51.15
43115;BME280;28727;50.068;14.452;2023-11-18T11:56:50;100127.44;;;7.78;51.21
43115;BME280;28727;50.068;14.452;2023-11-18T11:59:54;100142.13;;;7.81;50.09
43115;BME280;28727;50.068;14.452;2023-11-18T12:02:27;100146.56;;;7.80;49.99
43115;BME280;28727;50.068;14.452;2023-11-18T12:05:05;100146.13;;;7.75;50.44
43115;BME280;28727;50.068;14.452;2023-11-18T12:07:39;100140.28;;;7.72;50.80
43115;BME280;28727;50.068;14.452;2023-11-18T12:10:11;100134.44;;;7.68;50.51
43115;BME280;28727;50.068;14.452;2023-11-18T12:13:22;100139.59;;;7.70;50.66
43115;BME280;28727;50.068;14.452;2023-11-18T12:15:58;100143.88;;;7.71;51.13
43115;BME280;28727;50.068;14.452;2023-11-18T12:18:31;100123.00;;;7.79;51.41
43115;BME280;28727;50.068;14.452;2023-11-18T12:21:05;100120.66;;;7.76;51.10
43115;BME280;28727;50.068;14.452;2023-11-18T12:24:15;100130.47;;;7.74;50.53
43115;BME280;28727;50.068;14.452;2023-11-18T12:26:50;100113.97;;;7.72;50.63
43115;BME280;28727;50.068;14.452;2023-11-18T12:29:32;100115.66;;;7.73;52.86
43115;BME280;28727;50.068;14.452;2023-11-18T12:32:06;100112.09;;;7.83;50.33
43115;BME280;28727;50.068;14.452;2023-11-18T12:34:54;100119.84;;;7.85;50.65
43115;BME280;28727;50.068;14.452;2023-11-18T12:40:31;100118.50;;;7.91;50.18
43115;BME280;28727;50.068;14.452;2023-11-18T12:43:15;100110.75;;;7.89;50.65
43115;BME280;28727;50.068;14.452;2023-11-18T12:46:10;100102.16;;;7.97;49.77
43115;BME280;28727;50.068;14.452;2023-11-18T12:48:49;100098.03;;;8.04;50.33
43115;BME280;28727;50.068;14.452;2023-11-18T12:51:22;100092.13;;;8.11;50.16
43115;BME280;28727;50.068;14.452;2023-11-18T12:53:54;100096.84;;;8.17;50.07
43115;BME280;28727;50.068;14.452;2023-11-18T12:56:26;100086.31;;;8.17;50.00
43115;BME280;28727;50.068;14.452;2023-11-18T12:59:00;100076.91;;;8.25;49.43
43115;BME280;28727;50.068;14.452;2023-11-18T13:01:35;100074.28;;;8.25;49.36
43115;BME280;28727;50.068;14.452;2023-11-18T13:04:08;100068.03;;;8.26;50.39
43115;BME280;28727;50.068;14.452;2023-11-18T13:06:46;100070.16;;;8.32;49.59
43115;BME280;28727;50.068;14.452;2023-11-18T13:09:19;100067.75;;;8.19;49.35
43115;BME280;28727;50.068;14.452;2023-11-18T13:12:06;100067.63;;;8.20;50.73
43115;BME280;28727;50.068;14.452;2023-11-18T13:14:42;100076.75;;;8.26;50.63
43115;BME280;28727;50.068;14.452;2023-11-18T13:17:15;100070.94;;;8.22;50.21
43115;BME280;28727;50.068;14.452;2023-11-18T13:19:48;100069.81;;;8.15;50.07
43115;BME280;28727;50.068;14.452;2023-11-18T13:22:24;100063.84;;;8.13;50.48
43115;BME280;28727;50.068;14.452;2023-11-18T13:25:13;100051.53;;;8.04;51.21
43115;BME280;28727;50.068;14.452;2023-11-18T13:27:45;100051.50;;;7.95;50.99
43115;BME280;28727;50.068;14.452;2023-11-18T13:30:18;100055.34;;;7.91;51.53
43115;BME280;28727;50.068;14.452;2023-11-18T13:32:52;100057.16;;;7.90;50.64
43115;BME280;28727;50.068;14.452;2023-11-18T13:35:24;100058.50;;;7.75;50.99
43115;BME280;28727;50.068;14.452;2023-11-18T13:37:56;100060.06;;;7.77;51.57
43115;BME280;28727;50.068;14.452;2023-11-18T13:40:42;100052.59;;;7.82;51.43
43115;BME280;28727;50.068;14.452;2023-11-18T13:43:14;100039.56;;;7.81;51.64